createdAt,value
2023-02-08T00:01:59.452Z,17.00
2023-02-08T00:06:51.125Z,16.93
2023-02-08T00:11:42.896Z,19.47
2023-02-08T00:16:34.941Z,19.03
2023-02-08T00:21:26.614Z,16.90
2023-02-08T00:26:19.889Z,18.87
2023-02-08T00:31:11.652Z,17.00
2023-02-08T00:36:08.046Z,15.40
2023-02-08T00:40:59.805Z,17.07
2023-02-08T00:46:00.955Z,16.20
2023-02-08T00:51:05.120Z,17.47
2023-02-08T00:55:57.146Z,17.93
2023-02-08T01:00:53.124Z,16.20
2023-02-08T01:05:44.846Z,18.70
2023-02-08T01:10:36.533Z,17.60
2023-02-08T01:15:28.232Z,23.50
2023-02-08T01:20:20.204Z,15.93
2023-02-08T01:25:11.896Z,19.33
2023-02-08T01:30:05.178Z,15.53
2023-02-08T01:34:56.844Z,17.87
2023-02-08T01:39:48.531Z,19.47
2023-02-08T01:45:21.053Z,19.07
2023-02-08T01:50:17.806Z,17.60
2023-02-08T01:55:20.374Z,17.90
2023-02-08T02:00:22.213Z,17.97
2023-02-08T02:05:16.215Z,15.60
2023-02-08T02:10:14.274Z,16.30
2023-02-08T02:15:08.060Z,14.90
2023-02-08T02:20:23.753Z,22.63
2023-02-08T02:25:42.538Z,17.03
2023-02-08T02:30:53.119Z,15.83
2023-02-08T02:36:03.003Z,18.57
2023-02-08T02:41:05.818Z,17.13
2023-02-08T02:46:25.265Z,17.27
2023-02-08T02:51:44.192Z,15.87
2023-02-08T02:56:43.036Z,16.63
2023-02-08T03:01:36.100Z,16.97
2023-02-08T03:06:59.913Z,19.07
2023-02-08T03:12:22.487Z,21.10
2023-02-08T03:17:59.986Z,19.63
2023-02-08T03:23:24.294Z,16.87
2023-02-08T03:28:39.575Z,20.70
2023-02-08T03:34:02.636Z,16.27
2023-02-08T03:38:56.068Z,15.10
2023-02-08T03:44:05.485Z,16.47
2023-02-08T03:49:08.415Z,19.90
2023-02-08T03:54:06.517Z,19.67
2023-02-08T03:59:09.193Z,15.67
2023-02-08T04:04:01.560Z,21.07
2023-02-08T04:08:53.492Z,20.30
2023-02-08T04:13:45.287Z,16.43
2023-02-08T04:18:36.953Z,17.27
2023-02-08T04:23:28.610Z,20.50
2023-02-08T04:28:20.321Z,20.80
2023-02-08T04:33:14.698Z,18.33
2023-02-08T04:38:06.381Z,22.60
2023-02-08T04:42:58.052Z,17.07
2023-02-08T04:47:49.715Z,16.50
2023-02-08T04:52:41.380Z,16.57
2023-02-08T04:57:33.052Z,14.90
2023-02-08T05:02:26.576Z,13.20
2023-02-08T05:07:19.116Z,12.47
2023-02-08T05:12:10.849Z,15.10
2023-02-08T05:17:02.720Z,17.60
2023-02-08T05:21:54.735Z,18.07
2023-02-08T05:26:47.220Z,18.07
2023-02-08T05:31:39.478Z,15.97
2023-02-08T05:36:32.595Z,21.53
2023-02-08T05:41:24.958Z,15.03
2023-02-08T05:46:17.015Z,14.40
2023-02-08T05:51:09.628Z,17.10
2023-02-08T05:56:01.567Z,21.60
2023-02-08T06:00:54.568Z,15.13
2023-02-08T06:05:47.094Z,16.50
2023-02-08T06:15:45.944Z,17.70
2023-02-08T06:20:43.011Z,17.10
2023-02-08T06:25:37.224Z,20.33
2023-02-08T06:35:39.073Z,15.70
2023-02-08T06:40:33.209Z,15.13
2023-02-08T06:45:25.060Z,18.80
2023-02-08T06:50:17.370Z,16.13
2023-02-08T07:00:16.866Z,17.57
2023-02-08T07:05:11.081Z,16.60
2023-02-08T07:10:05.218Z,15.33
2023-02-08T07:14:58.089Z,17.47
2023-02-08T07:24:57.734Z,15.10
2023-02-08T07:34:56.086Z,20.77
2023-02-08T07:39:50.141Z,27.43
2023-02-08T07:44:43.277Z,17.90
2023-02-08T07:49:35.384Z,19.13
2023-02-08T07:54:27.876Z,17.83
2023-02-08T07:59:19.897Z,14.37
2023-02-08T08:04:13.033Z,18.00
2023-02-08T08:09:06.078Z,19.30
2023-02-08T08:24:10.958Z,18.80
2023-02-08T08:29:03.118Z,21.10
2023-02-08T08:33:56.621Z,18.93
2023-02-08T08:38:49.091Z,15.80
2023-02-08T08:43:43.500Z,16.00
2023-02-08T09:14:41.699Z,16.63
2023-02-08T09:24:40.177Z,18.23
2023-02-08T09:39:52.044Z,16.10
2023-02-08T09:56:14.785Z,26.57
2023-02-08T10:17:58.154Z,17.83
2023-02-08T11:17:36.497Z,17.37
2023-02-08T11:48:59.593Z,15.40
2023-02-08T12:55:56.300Z,17.40
2023-02-08T13:00:56.199Z,16.00
2023-02-08T13:06:02.200Z,17.43
2023-02-08T13:11:21.178Z,15.20
2023-02-08T13:16:39.373Z,16.87
2023-02-08T13:32:09.743Z,13.70
2023-02-08T13:37:25.188Z,13.67
2023-02-08T13:42:36.417Z,16.17
2023-02-08T13:47:44.091Z,14.57
2023-02-08T13:52:49.536Z,13.87
2023-02-08T14:24:50.471Z,19.03
2023-02-08T14:29:44.687Z,18.37
2023-02-08T14:50:41.188Z,30.70
2023-02-08T14:55:49.497Z,12.27
2023-02-08T15:06:17.567Z,10.57
2023-02-08T16:08:44.527Z,19.63
2023-02-08T16:34:48.541Z,20.43
2023-02-08T16:45:09.328Z,17.13
2023-02-08T16:50:03.147Z,22.07
2023-02-08T17:00:04.301Z,19.57
2023-02-08T17:15:09.296Z,20.93
2023-02-08T17:20:02.733Z,17.90
2023-02-08T17:30:01.330Z,17.33
2023-02-08T17:34:53.720Z,17.70
2023-02-08T17:39:46.582Z,15.80
2023-02-08T17:49:45.901Z,15.83
2023-02-08T17:54:38.706Z,15.83
2023-02-08T18:04:37.381Z,26.13
2023-02-08T18:09:32.893Z,25.87
2023-02-08T18:14:24.790Z,27.73
2023-02-08T18:19:17.284Z,21.77
2023-02-08T18:24:10.728Z,26.13
2023-02-08T18:29:03.875Z,27.03
2023-02-08T18:33:57.656Z,28.03
2023-02-08T18:44:00.145Z,24.33
2023-02-08T18:48:54.397Z,22.03
2023-02-08T18:53:51.678Z,22.30
2023-02-08T18:58:45.030Z,25.80
2023-02-08T19:03:40.395Z,24.53
2023-02-08T19:08:33.096Z,29.40
2023-02-08T19:13:30.384Z,24.30
2023-02-08T19:18:22.773Z,24.43
2023-02-08T19:23:18.510Z,20.53
2023-02-08T19:28:10.701Z,25.17
2023-02-08T19:33:03.391Z,21.90
2023-02-08T19:37:55.210Z,25.33
2023-02-08T19:42:48.205Z,24.27
2023-02-08T19:47:50.995Z,20.47
2023-02-08T19:52:43.526Z,25.67
2023-02-08T19:57:40.277Z,24.00
2023-02-08T20:02:32.934Z,23.90
2023-02-08T20:07:26.519Z,21.03
2023-02-08T20:12:19.729Z,22.03
2023-02-08T20:17:11.870Z,22.10
2023-02-08T20:22:11.809Z,23.90
2023-02-08T20:27:03.975Z,25.90
2023-02-08T20:31:57.789Z,24.97
2023-02-08T20:37:05.695Z,23.73
2023-02-08T20:42:02.696Z,27.57
2023-02-08T20:46:54.613Z,26.80
2023-02-08T20:51:46.858Z,23.00
2023-02-08T20:56:40.362Z,25.87
2023-02-08T21:01:35.111Z,24.00
2023-02-08T21:06:31.713Z,24.30
2023-02-08T21:11:28.715Z,24.30
2023-02-08T21:16:22.414Z,25.37
2023-02-08T21:21:15.569Z,26.77
2023-02-08T21:26:08.861Z,27.47
2023-02-08T21:31:12.843Z,27.33
2023-02-08T21:36:10.368Z,29.00
2023-02-08T21:41:16.682Z,26.80
2023-02-08T21:46:13.408Z,26.07
2023-02-08T21:51:24.045Z,26.93
2023-02-08T21:56:15.878Z,28.43
2023-02-08T22:01:09.039Z,32.43
2023-02-08T22:06:01.649Z,29.80
2023-02-08T22:10:58.308Z,27.77
2023-02-08T22:15:50.835Z,23.23
2023-02-08T22:20:47.334Z,27.43
2023-02-08T22:25:39.318Z,28.90
2023-02-08T22:30:32.322Z,24.80
2023-02-08T22:35:28.056Z,29.67
2023-02-08T22:40:20.342Z,31.67
2023-02-08T22:45:12.577Z,30.13
2023-02-08T22:50:06.342Z,27.80
2023-02-08T22:55:02.995Z,28.07
2023-02-08T22:59:55.391Z,29.90
2023-02-08T23:04:47.503Z,27.33
2023-02-08T23:09:39.457Z,34.43
2023-02-08T23:14:31.374Z,29.17
2023-02-08T23:19:41.065Z,30.07
2023-02-08T23:24:33.207Z,28.47
2023-02-08T23:29:26.077Z,25.27
2023-02-08T23:34:18.479Z,26.67
2023-02-08T23:39:13.700Z,28.47
2023-02-08T23:44:06.447Z,29.07
2023-02-08T23:48:58.688Z,29.07
2023-02-08T23:53:52.653Z,31.23
2023-02-08T23:58:51.702Z,23.97
